sensor_id;sensor_type;location;lat;lon;timestamp;pressure;altitude;pressure_sealevel;temperature;humidity
18819;BME280;9537;45.594;9.294;2023-03-31T00:00:12;99782.41;;;13.18;69.29
18819;BME280;9537;45.594;9.294;2023-03-31T00:01:14;99781.59;;;13.17;69.70
18819;BME280;9537;45.594;9.294;2023-03-31T00:02:16;99779.50;;;13.13;70.07
18819;BME280;9537;45.594;9.294;2023-03-31T00:03:21;99786.47;;;13.14;69.63
18819;BME280;9537;45.594;9.294;2023-03-31T00:04:24;99779.69;;;13.11;69.90
18819;BME280;9537;45.594;9.294;2023-03-31T00:05:25;99781.88;;;13.07;69.80
18819;BME280;9537;45.594;9.294;2023-03-31T00:06:28;99780.25;;;13.06;70.22
18819;BME280;9537;45.594;9.294;2023-03-31T00:07:29;99781.53;;;13.11;69.78
18819;BME280;9537;45.594;9.294;2023-03-31T00:08:31;99784.91;;;13.19;69.37
18819;BME280;9537;45.594;9.294;2023-03-31T00:09:35;99775.66;;;13.15;69.62
18819;BME280;9537;45.594;9.294;2023-03-31T00:10:37;99782.16;;;13.13;69.48
18819;BME280;9537;45.594;9.294;2023-03-31T00:11:45;99772.34;;;13.13;69.54
18819;BME280;9537;45.594;9.294;2023-03-31T00:12:48;99775.75;;;13.07;70.10
18819;BME280;9537;45.594;9.294;2023-03-31T00:13:49;99768.44;;;13.09;70.03
18819;BME280;9537;45.594;9.294;2023-03-31T00:14:51;99761.50;;;13.08;69.78
18819;BME280;9537;45.594;9.294;2023-03-31T00:15:55;99769.63;;;13.06;69.68
18819;BME280;9537;45.594;9.294;2023-03-31T00:16:57;99758.66;;;13.10;69.74
18819;BME280;9537;45.594;9.294;2023-03-31T00:18:01;99763.78;;;13.11;69.92
18819;BME280;9537;45.594;9.294;2023-03-31T00:19:02;99760.50;;;13.09;69.75
18819;BME280;9537;45.594;9.294;2023-03-31T00:20:06;99760.66;;;13.07;69.72
18819;BME280;9537;45.594;9.294;2023-03-31T00:21:13;99761.69;;;13.06;69.83
18819;BME280;9537;45.594;9.294;2023-03-31T00:22:24;99765.97;;;13.07;70.02
18819;BME280;9537;45.594;9.294;2023-03-31T00:23:27;99757.41;;;13.05;69.78
18819;BME280;9537;45.594;9.294;2023-03-31T00:24:28;99747.59;;;13.06;69.72
18819;BME280;9537;45.594;9.294;2023-03-31T00:25:32;99747.22;;;13.09;70.03
18819;BME280;9537;45.594;9.294;2023-03-31T00:26:35;99747.41;;;13.07;69.63
18819;BME280;9537;45.594;9.294;2023-03-31T00:27:36;99755.34;;;13.07;70.06
18819;BME280;9537;45.594;9.294;2023-03-31T00:28:39;99740.72;;;13.12;69.77
18819;BME280;9537;45.594;9.294;2023-03-31T00:29:40;99745.72;;;13.21;68.97
18819;BME280;9537;45.594;9.294;2023-03-31T00:30:43;99741.88;;;13.24;68.46
18819;BME280;9537;45.594;9.294;2023-03-31T00:31:44;99735.13;;;13.21;69.04
18819;BME280;9537;45.594;9.294;2023-03-31T00:32:46;99744.09;;;13.20;69.24
18819;BME280;9537;45.594;9.294;2023-03-31T00:33:47;99741.44;;;13.20;68.89
18819;BME280;9537;45.594;9.294;2023-03-31T00:34:50;99740.78;;;13.18;69.31
18819;BME280;9537;45.594;9.294;2023-03-31T00:35:51;99738.72;;;13.14;69.64
18819;BME280;9537;45.594;9.294;2023-03-31T00:36:53;99739.72;;;13.13;69.49
18819;BME280;9537;45.594;9.294;2023-03-31T00:37:56;99735.22;;;13.13;69.71
18819;BME280;9537;45.594;9.294;2023-03-31T00:39:02;99735.44;;;13.12;69.56
18819;BME280;9537;45.594;9.294;2023-03-31T00:40:07;99737.66;;;13.08;69.85
18819;BME280;9537;45.594;9.294;2023-03-31T00:41:09;99739.44;;;13.07;70.02
18819;BME280;9537;45.594;9.294;2023-03-31T00:42:11;99734.63;;;13.11;69.49
18819;BME280;9537;45.594;9.294;2023-03-31T00:43:25;99735.81;;;13.08;69.22
18819;BME280;9537;45.594;9.294;2023-03-31T00:44:30;99731.75;;;13.13;69.02
18819;BME280;9537;45.594;9.294;2023-03-31T00:45:34;99733.03;;;13.17;68.68
18819;BME280;9537;45.594;9.294;2023-03-31T00:46:43;99729.09;;;13.13;69.09
18819;BME280;9537;45.594;9.294;2023-03-31T00:47:50;99730.13;;;13.12;69.18
18819;BME280;9537;45.594;9.294;2023-03-31T00:48:54;99725.84;;;13.11;69.62
18819;BME280;9537;45.594;9.294;2023-03-31T00:49:58;99730.13;;;13.12;69.06
18819;BME280;9537;45.594;9.294;2023-03-31T00:51:02;99725.84;;;13.11;69.30
18819;BME280;9537;45.594;9.294;2023-03-31T00:52:07;99730.13;;;13.12;69.37
18819;BME280;9537;45.594;9.294;2023-03-31T00:53:16;99726.47;;;13.13;69.40
18819;BME280;9537;45.594;9.294;2023-03-31T00:54:20;99721.34;;;13.11;68.81
18819;BME280;9537;45.594;9.294;2023-03-31T00:55:30;99722.44;;;13.17;68.67
18819;BME280;9537;45.594;9.294;2023-03-31T00:56:35;99712.22;;;13.14;69.19
18819;BME280;9537;45.594;9.294;2023-03-31T00:57:40;99715.03;;;13.12;69.12
18819;BME280;9537;45.594;9.294;2023-03-31T00:58:44;99713.19;;;13.13;68.91
18819;BME280;9537;45.594;9.294;2023-03-31T00:59:50;99710.38;;;13.14;69.17
18819;BME280;9537;45.594;9.294;2023-03-31T01:00:51;99704.03;;;13.15;69.22
18819;BME280;9537;45.594;9.294;2023-03-31T01:01:54;99711.34;;;13.13;69.34
18819;BME280;9537;45.594;9.294;2023-03-31T01:03:02;99706.91;;;13.14;69.45
18819;BME280;9537;45.594;9.294;2023-03-31T01:04:07;99707.72;;;13.14;68.99
18819;BME280;9537;45.594;9.294;2023-03-31T01:05:09;99706.91;;;13.14;69.44
18819;BME280;9537;45.594;9.294;2023-03-31T01:06:10;99704.88;;;13.16;69.40
18819;BME280;9537;45.594;9.294;2023-03-31T01:07:17;99701.59;;;13.14;69.54
18819;BME280;9537;45.594;9.294;2023-03-31T01:08:24;99705.88;;;13.15;69.06
18819;BME280;9537;45.594;9.294;2023-03-31T01:09:28;99705.88;;;13.15;69.30
18819;BME280;9537;45.594;9.294;2023-03-31T01:10:37;99706.91;;;13.14;68.97
18819;BME280;9537;45.594;9.294;2023-03-31T01:11:42;99705.88;;;13.15;69.18
18819;BME280;9537;45.594;9.294;2023-03-31T01:12:48;99708.53;;;13.15;68.92
18819;BME280;9537;45.594;9.294;2023-03-31T01:13:51;99716.50;;;13.15;68.53
18819;BME280;9537;45.594;9.294;2023-03-31T01:14:57;99712.22;;;13.14;69.20
18819;BME280;9537;45.594;9.294;2023-03-31T01:15:58;99711.34;;;13.13;69.57
18819;BME280;9537;45.594;9.294;2023-03-31T01:17:00;99710.53;;;13.13;69.86
18819;BME280;9537;45.594;9.294;2023-03-31T01:18:02;99706.63;;;13.08;70.37
18819;BME280;9537;45.594;9.294;2023-03-31T01:19:08;99706.63;;;13.08;71.50
18819;BME280;9537;45.594;9.294;2023-03-31T01:20:15;99700.53;;;13.08;70.96
18819;BME280;9537;45.594;9.294;2023-03-31T01:21:46;99699.88;;;13.06;70.94
18819;BME280;9537;45.594;9.294;2023-03-31T01:26:41;99673.53;;;13.04;71.01
18819;BME280;9537;45.594;9.294;2023-03-31T01:27:53;99666.22;;;13.06;71.27
18819;BME280;9537;45.594;9.294;2023-03-31T01:29:01;99666.22;;;13.06;70.54
18819;BME280;9537;45.594;9.294;2023-03-31T01:30:25;99655.63;;;13.06;70.25
18819;BME280;9537;45.594;9.294;2023-03-31T01:31:46;99654.59;;;13.07;70.19
18819;BME280;9537;45.594;9.294;2023-03-31T01:38:03;99667.31;;;13.12;69.69
18819;BME280;9537;45.594;9.294;2023-03-31T01:40:59;99664.84;;;13.11;69.89
18819;BME280;9537;45.594;9.294;2023-03-31T01:42:10;99671.16;;;13.10;70.25
18819;BME280;9537;45.594;9.294;2023-03-31T01:43:19;99665.09;;;13.16;70.53
18819;BME280;9537;45.594;9.294;2023-03-31T01:44:31;99661.88;;;13.20;70.25
18819;BME280;9537;45.594;9.294;2023-03-31T01:45:41;99664.31;;;13.22;69.10
18819;BME280;9537;45.594;9.294;2023-03-31T01:46:51;99667.19;;;13.20;68.58
18819;BME280;9537;45.594;9.294;2023-03-31T01:47:55;99663.06;;;13.18;69.65
18819;BME280;9537;45.594;9.294;2023-03-31T01:49:02;99666.28;;;13.13;69.69
18819;BME280;9537;45.594;9.294;2023-03-31T01:50:10;99660.75;;;13.08;70.55
18819;BME280;9537;45.594;9.294;2023-03-31T01:51:20;99662.13;;;13.04;70.88
18819;BME280;9537;45.594;9.294;2023-03-31T01:52:34;99662.13;;;13.04;71.30
18819;BME280;9537;45.594;9.294;2023-03-31T01:53:46;99657.03;;;13.02;71.59
18819;BME280;9537;45.594;9.294;2023-03-31T01:54:52;99663.13;;;13.03;71.68
18819;BME280;9537;45.594;9.294;2023-03-31T01:56:01;99657.84;;;13.03;70.66
18819;BME280;9537;45.594;9.294;2023-03-31T01:57:11;99661.56;;;13.08;70.36
18819;BME280;9537;45.594;9.294;2023-03-31T01:58:18;99661.72;;;13.07;70.41
18819;BME280;9537;45.594;9.294;2023-03-31T01:59:23;99661.56;;;13.08;70.61
18819;BME280;9537;45.594;9.294;2023-03-31T02:00:30;99665.19;;;13.07;70.20
18819;BME280;9537;45.594;9.294;2023-03-31T02:01:36;99660.28;;;13.04;70.74
18819;BME280;9537;45.594;9.294;2023-03-31T02:02:44;99665.59;;;13.04;70.74
18819;BME280;9537;45.594;9.294;2023-03-31T02:03:52;99663.78;;;13.05;70.63
18819;BME280;9537;45.594;9.294;2023-03-31T02:04:58;99660.91;;;13.06;70.23
18819;BME280;9537;45.594;9.294;2023-03-31T02:06:05;99659.28;;;13.05;70.34
18819;BME280;9537;45.594;9.294;2023-03-31T02:07:11;99658.47;;;13.05;70.06
18819;BME280;9537;45.594;9.294;2023-03-31T02:08:18;99665.19;;;13.07;70.06
18819;BME280;9537;45.594;9.294;2023-03-31T02:09:25;99659.97;;;13.14;69.59
18819;BME280;9537;45.594;9.294;2023-03-31T02:10:29;99664.31;;;13.22;69.20
18819;BME280;9537;45.594;9.294;2023-03-31T02:11:34;99661.88;;;13.20;68.88
18819;BME280;9537;45.594;9.294;2023-03-31T02:12:38;99664.09;;;13.17;69.06
18819;BME280;9537;45.594;9.294;2023-03-31T02:13:46;99664.84;;;13.11;70.08
18819;BME280;9537;45.594;9.294;2023-03-31T02:14:49;99667.84;;;13.07;70.12
18819;BME280;9537;45.594;9.294;2023-03-31T02:15:55;99655.63;;;13.06;70.61
18819;BME280;9537;45.594;9.294;2023-03-31T02:17:01;99655.63;;;13.06;70.70
18819;BME280;9537;45.594;9.294;2023-03-31T02:18:06;99642.19;;;13.08;70.66
18819;BME280;9537;45.594;9.294;2023-03-31T02:19:11;99640.78;;;13.12;69.89
18819;BME280;9537;45.594;9.294;2023-03-31T02:20:16;99630.19;;;13.12;69.79
18819;BME280;9537;45.594;9.294;2023-03-31T02:21:18;99623.25;;;13.11;69.48
18819;BME280;9537;45.594;9.294;2023-03-31T02:22:23;99627.53;;;13.12;69.20
18819;BME280;9537;45.594;9.294;2023-03-31T02:23:27;99622.44;;;13.11;69.35
18819;BME280;9537;45.594;9.294;2023-03-31T02:24:32;99618.94;;;13.10;68.65
18819;BME280;9537;45.594;9.294;2023-03-31T02:25:37;99618.31;;;13.08;68.98
18819;BME280;9537;45.594;9.294;2023-03-31T02:26:48;99625.69;;;13.13;68.89
18819;BME280;9537;45.594;9.294;2023-03-31T02:27:55;99617.13;;;13.11;68.87
18819;BME280;9537;45.594;9.294;2023-03-31T02:29:00;99608.09;;;13.05;69.12
18819;BME280;9537;45.594;9.294;2023-03-31T02:30:01;99611.75;;;13.04;69.30
18819;BME280;9537;45.594;9.294;2023-03-31T02:31:15;99608.09;;;13.05;69.25
18819;BME280;9537;45.594;9.294;2023-03-31T02:32:25;99607.25;;;13.04;69.14
18819;BME280;9537;45.594;9.294;2023-03-31T02:33:32;99607.88;;;13.06;69.45
18819;BME280;9537;45.594;9.294;2023-03-31T02:34:33;99607.72;;;13.08;69.09
18819;BME280;9537;45.594;9.294;2023-03-31T02:35:35;99615.03;;;13.06;69.27
18819;BME280;9537;45.594;9.294;2023-03-31T02:36:36;99616.88;;;13.05;69.20
18819;BME280;9537;45.594;9.294;2023-03-31T02:37:39;99616.06;;;13.05;69.03
18819;BME280;9537;45.594;9.294;2023-03-31T02:38:45;99617.25;;;13.02;69.50
18819;BME280;9537;45.594;9.294;2023-03-31T02:39:50;99620.88;;;13.01;69.37
18819;BME280;9537;45.594;9.294;2023-03-31T02:40:53;99620.28;;;12.99;69.24
18819;BME280;9537;45.594;9.294;2023-03-31T02:41:56;99620.28;;;12.99;69.46
18819;BME280;9537;45.594;9.294;2023-03-31T02:42:58;99615.78;;;13.00;69.86
18819;BME280;9537;45.594;9.294;2023-03-31T02:44:00;99623.75;;;13.00;69.46
18819;BME280;9537;45.594;9.294;2023-03-31T02:45:03;99621.09;;;13.00;69.33
18819;BME280;9537;45.594;9.294;2023-03-31T02:46:05;99617.81;;;12.98;69.71
18819;BME280;9537;45.594;9.294;2023-03-31T02:47:10;99622.94;;;12.99;69.50
18819;BME280;9537;45.594;9.294;2023-03-31T02:48:16;99621.09;;;13.00;69.54
18819;BME280;9537;45.594;9.294;2023-03-31T02:49:19;99627.84;;;13.02;69.60
18819;BME280;9537;45.594;9.294;2023-03-31T02:50:23;99623.16;;;13.04;69.22
18819;BME280;9537;45.594;9.294;2023-03-31T02:51:48;99625.44;;;13.07;69.26
18819;BME280;9537;45.594;9.294;2023-03-31T02:53:02;99625.63;;;13.06;69.35
18819;BME280;9537;45.594;9.294;2023-03-31T02:54:27;99620.72;;;13.03;69.94
18819;BME280;9537;45.594;9.294;2023-03-31T02:55:45;99616.41;;;13.02;70.24
18819;BME280;9537;45.594;9.294;2023-03-31T02:57:25;99598.69;;;13.02;69.98
18819;BME280;9537;45.594;9.294;2023-03-31T02:58:49;99591.97;;;13.06;69.68
18819;BME280;9537;45.594;9.294;2023-03-31T03:00:03;99607.25;;;13.04;69.50
18819;BME280;9537;45.594;9.294;2023-03-31T03:01:21;99609.91;;;13.04;69.59
18819;BME280;9537;45.594;9.294;2023-03-31T03:02:36;99609.72;;;13.06;69.29
18819;BME280;9537;45.594;9.294;2023-03-31T03:03:45;99617.69;;;13.06;69.77
18819;BME280;9537;45.594;9.294;2023-03-31T03:05:13;99612.56;;;13.04;69.85
18819;BME280;9537;45.594;9.294;2023-03-31T03:06:29;99612.75;;;13.03;69.81
18819;BME280;9537;45.594;9.294;2023-03-31T03:07:43;99614.38;;;13.04;69.64
18819;BME280;9537;45.594;9.294;2023-03-31T03:09:01;99610.94;;;13.03;69.50
18819;BME280;9537;45.594;9.294;2023-03-31T03:10:08;99610.50;;;13.00;69.87
18819;BME280;9537;45.594;9.294;2023-03-31T03:11:14;99614.97;;;12.99;70.26
18819;BME280;9537;45.594;9.294;2023-03-31T03:12:24;99618.00;;;12.96;70.41
18819;BME280;9537;45.594;9.294;2023-03-31T03:13:30;99619.91;;;13.02;70.33
18819;BME280;9537;45.594;9.294;2023-03-31T03:14:40;99610.13;;;13.03;69.73
18819;BME280;9537;45.594;9.294;2023-03-31T03:15:46;99616.41;;;13.02;69.97
18819;BME280;9537;45.594;9.294;2023-03-31T03:16:55;99616.78;;;12.99;69.60
18819;BME280;9537;45.594;9.294;2023-03-31T03:17:58;99610.66;;;12.98;69.68
18819;BME280;9537;45.594;9.294;2023-03-31T03:19:02;99603.53;;;12.99;69.29
18819;BME280;9537;45.594;9.294;2023-03-31T03:20:06;99596.59;;;12.98;69.60
18819;BME280;9537;45.594;9.294;2023-03-31T03:21:09;99592.50;;;12.95;69.64
18819;BME280;9537;45.594;9.294;2023-03-31T03:22:10;99580.03;;;12.96;69.71
18819;BME280;9537;45.594;9.294;2023-03-31T03:23:12;99592.31;;;12.97;69.28
18819;BME280;9537;45.594;9.294;2023-03-31T03:24:14;99587.81;;;12.97;69.56
18819;BME280;9537;45.594;9.294;2023-03-31T03:25:17;99586.41;;;13.01;69.39
18819;BME280;9537;45.594;9.294;2023-03-31T03:26:20;99589.72;;;13.03;69.21
18819;BME280;9537;45.594;9.294;2023-03-31T03:27:24;99591.34;;;13.04;69.00
18819;BME280;9537;45.594;9.294;2023-03-31T03:28:25;99594.19;;;13.03;69.06
18819;BME280;9537;45.594;9.294;2023-03-31T03:29:27;99589.72;;;13.03;68.63
18819;BME280;9537;45.594;9.294;2023-03-31T03:30:28;99591.16;;;13.06;68.59
18819;BME280;9537;45.594;9.294;2023-03-31T03:31:30;99594.00;;;13.04;68.64
18819;BME280;9537;45.594;9.294;2023-03-31T03:32:33;99588.09;;;13.02;68.55
18819;BME280;9537;45.594;9.294;2023-03-31T03:33:35;99587.88;;;13.04;68.91
18819;BME280;9537;45.594;9.294;2023-03-31T03:34:36;99581.59;;;13.05;68.52
18819;BME280;9537;45.594;9.294;2023-03-31T03:35:38;99579.91;;;13.04;68.56
18819;BME280;9537;45.594;9.294;2023-03-31T03:36:40;99577.91;;;13.06;68.65
18819;BME280;9537;45.594;9.294;2023-03-31T03:37:42;99580.75;;;13.04;68.88
18819;BME280;9537;45.594;9.294;2023-03-31T03:38:42;99590.34;;;13.05;68.96
18819;BME280;9537;45.594;9.294;2023-03-31T03:39:44;99589.53;;;13.05;68.85
18819;BME280;9537;45.594;9.294;2023-03-31T03:40:45;99589.72;;;13.03;68.51
18819;BME280;9537;45.594;9.294;2023-03-31T03:41:47;99593.81;;;13.06;69.47
18819;BME280;9537;45.594;9.294;2023-03-31T03:42:50;99592.38;;;13.03;70.24
18819;BME280;9537;45.594;9.294;2023-03-31T03:43:52;99600.50;;;13.02;70.39
18819;BME280;9537;45.594;9.294;2023-03-31T03:44:53;99597.03;;;13.01;70.68
18819;BME280;9537;45.594;9.294;2023-03-31T03:45:55;99600.06;;;12.98;70.70
18819;BME280;9537;45.594;9.294;2023-03-31T03:46:56;99603.53;;;12.99;71.10
18819;BME280;9537;45.594;9.294;2023-03-31T03:47:58;99601.72;;;12.99;70.25
18819;BME280;9537;45.594;9.294;2023-03-31T03:48:59;99603.53;;;12.99;70.11
18819;BME280;9537;45.594;9.294;2023-03-31T03:50:02;99588.66;;;12.98;70.31
18819;BME280;9537;45.594;9.294;2023-03-31T03:51:03;99593.31;;;12.96;70.74
18819;BME280;9537;45.594;9.294;2023-03-31T03:52:06;99598.81;;;12.94;70.20
18819;BME280;9537;45.594;9.294;2023-03-31T03:53:07;99601.47;;;12.94;70.73
18819;BME280;9537;45.594;9.294;2023-03-31T03:54:09;99605.09;;;12.93;71.04
18819;BME280;9537;45.594;9.294;2023-03-31T03:55:10;99607.16;;;12.91;71.21
18819;BME280;9537;45.594;9.294;2023-03-31T03:56:13;99623.88;;;12.92;71.39
18819;BME280;9537;45.594;9.294;2023-03-31T03:57:14;99614.50;;;12.96;70.45
18819;BME280;9537;45.594;9.294;2023-03-31T03:58:18;99619.63;;;12.97;69.62
18819;BME280;9537;45.594;9.294;2023-03-31T03:59:19;99604.38;;;12.99;69.08
18819;BME280;9537;45.594;9.294;2023-03-31T04:00:21;99595.41;;;13.00;69.14
18819;BME280;9537;45.594;9.294;2023-03-31T04:01:23;99605.19;;;13.00;69.00
18819;BME280;9537;45.594;9.294;2023-03-31T04:02:25;99597.41;;;12.98;69.10
18819;BME280;9537;45.594;9.294;2023-03-31T04:03:28;99601.09;;;12.97;69.72
18819;BME280;9537;45.594;9.294;2023-03-31T04:04:30;99602.28;;;12.95;70.11
18819;BME280;9537;45.594;9.294;2023-03-31T04:05:32;99605.75;;;12.95;70.37
18819;BME280;9537;45.594;9.294;2023-03-31T04:06:34;99605.56;;;12.97;70.45
18819;BME280;9537;45.594;9.294;2023-03-31T04:07:36;99600.50;;;13.02;70.46
18819;BME280;9537;45.594;9.294;2023-03-31T04:08:37;99596.22;;;13.01;70.80
18819;BME280;9537;45.594;9.294;2023-03-31T04:09:39;99604.59;;;13.04;70.56
18819;BME280;9537;45.594;9.294;2023-03-31T04:10:43;99591.56;;;13.03;70.70
18819;BME280;9537;45.594;9.294;2023-03-31T04:11:45;99583.78;;;13.01;70.13
18819;BME280;9537;45.594;9.294;2023-03-31T04:12:46;99585.19;;;12.97;70.63
18819;BME280;9537;45.594;9.294;2023-03-31T04:13:50;99581.88;;;12.95;70.77
18819;BME280;9537;45.594;9.294;2023-03-31T04:14:51;99573.94;;;12.95;70.61
18819;BME280;9537;45.594;9.294;2023-03-31T04:15:53;99569.28;;;12.97;70.32
18819;BME280;9537;45.594;9.294;2023-03-31T04:16:54;99573.13;;;12.95;70.21
18819;BME280;9537;45.594;9.294;2023-03-31T04:17:58;99568.19;;;12.92;69.98
18819;BME280;9537;45.594;9.294;2023-03-31T04:18:59;99566.34;;;12.92;70.12
18819;BME280;9537;45.594;9.294;2023-03-31T04:20:05;99561.28;;;12.91;69.79
18819;BME280;9537;45.594;9.294;2023-03-31T04:21:10;99562.25;;;12.90;70.03
18819;BME280;9537;45.594;9.294;2023-03-31T04:22:14;99559.81;;;12.88;70.00
18819;BME280;9537;45.594;9.294;2023-03-31T04:23:21;99556.13;;;12.89;69.94
18819;BME280;9537;45.594;9.294;2023-03-31T04:24:26;99563.06;;;12.90;69.80
18819;BME280;9537;45.594;9.294;2023-03-31T04:25:30;99561.44;;;12.89;69.77
18819;BME280;9537;45.594;9.294;2023-03-31T04:26:34;99556.97;;;12.90;69.78
18819;BME280;9537;45.594;9.294;2023-03-31T04:27:44;99557.16;;;12.88;69.72
18819;BME280;9537;45.594;9.294;2023-03-31T04:28:51;99560.63;;;12.89;70.01
18819;BME280;9537;45.594;9.294;2023-03-31T04:29:52;99564.09;;;12.89;69.99
18819;BME280;9537;45.594;9.294;2023-03-31T04:30:55;99563.91;;;12.91;70.18
18819;BME280;9537;45.594;9.294;2023-03-31T04:31:58;99564.34;;;12.94;70.25
18819;BME280;9537;45.594;9.294;2023-03-31T04:33:01;99554.31;;;12.90;70.15
18819;BME280;9537;45.594;9.294;2023-03-31T04:34:04;99544.53;;;12.90;69.93
18819;BME280;9537;45.594;9.294;2023-03-31T04:35:07;99543.97;;;12.95;69.60
18819;BME280;9537;45.594;9.294;2023-03-31T04:36:08;99541.13;;;12.96;69.60
18819;BME280;9537;45.594;9.294;2023-03-31T04:37:17;99539.69;;;12.94;69.41
18819;BME280;9537;45.594;9.294;2023-03-31T04:38:19;99539.47;;;12.95;69.51
18819;BME280;9537;45.594;9.294;2023-03-31T04:39:22;99540.91;;;12.98;69.29
18819;BME280;9537;45.594;9.294;2023-03-31T04:40:26;99540.75;;;12.99;69.15
18819;BME280;9537;45.594;9.294;2023-03-31T04:41:28;99554.19;;;12.98;69.14
18819;BME280;9537;45.594;9.294;2023-03-31T04:42:29;99550.88;;;12.96;69.54
18819;BME280;9537;45.594;9.294;2023-03-31T04:43:31;99552.72;;;12.95;69.18
18819;BME280;9537;45.594;9.294;2023-03-31T04:44:33;99548.69;;;12.99;69.38
18819;BME280;9537;45.594;9.294;2023-03-31T04:45:35;99546.22;;;12.98;69.96
18819;BME280;9537;45.594;9.294;2023-03-31T04:46:36;99544.34;;;12.92;70.85
18819;BME280;9537;45.594;9.294;2023-03-31T04:47:38;99544.34;;;12.92;71.56
18819;BME280;9537;45.594;9.294;2023-03-31T04:48:39;99554.31;;;12.90;71.49
18819;BME280;9537;45.594;9.294;2023-03-31T04:49:41;99552.47;;;12.90;71.59
18819;BME280;9537;45.594;9.294;2023-03-31T04:50:45;99556.13;;;12.89;72.28
18819;BME280;9537;45.594;9.294;2023-03-31T04:51:46;99556.13;;;12.89;72.12
18819;BME280;9537;45.594;9.294;2023-03-31T04:52:48;99555.31;;;12.89;71.90
18819;BME280;9537;45.594;9.294;2023-03-31T04:53:49;99559.81;;;12.88;71.81
18819;BME280;9537;45.594;9.294;2023-03-31T04:54:51;99549.22;;;12.88;71.57
18819;BME280;9537;45.594;9.294;2023-03-31T04:55:52;99550.19;;;12.87;71.01
18819;BME280;9537;45.594;9.294;2023-03-31T04:56:54;99548.56;;;12.86;71.50
18819;BME280;9537;45.594;9.294;2023-03-31T04:57:56;99548.56;;;12.86;71.75
18819;BME280;9537;45.594;9.294;2023-03-31T04:58:57;99541.44;;;12.87;71.34
18819;BME280;9537;45.594;9.294;2023-03-31T05:00:00;99544.09;;;12.87;71.46
18819;BME280;9537;45.594;9.294;2023-03-31T05:01:01;99539.81;;;12.85;71.49
18819;BME280;9537;45.594;9.294;2023-03-31T05:02:03;99544.28;;;12.85;71.57
18819;BME280;9537;45.594;9.294;2023-03-31T05:03:04;99538.16;;;12.84;71.89
18819;BME280;9537;45.594;9.294;2023-03-31T05:04:06;99533.69;;;12.85;71.73
18819;BME280;9537;45.594;9.294;2023-03-31T05:05:07;99531.84;;;12.85;71.42
18819;BME280;9537;45.594;9.294;2023-03-31T05:06:10;99540.41;;;12.88;71.51
18819;BME280;9537;45.594;9.294;2023-03-31T05:07:11;99540.41;;;12.88;71.13
18819;BME280;9537;45.594;9.294;2023-03-31T05:08:13;99533.31;;;12.88;71.37
18819;BME280;9537;45.594;9.294;2023-03-31T05:09:14;99526.16;;;12.89;71.31
18819;BME280;9537;45.594;9.294;2023-03-31T05:10:16;99525.34;;;12.88;71.39
18819;BME280;9537;45.594;9.294;2023-03-31T05:11:17;99514.75;;;12.88;71.30
18819;BME280;9537;45.594;9.294;2023-03-31T05:12:19;99518.22;;;12.89;71.05
18819;BME280;9537;45.594;9.294;2023-03-31T05:13:20;99511.72;;;12.91;71.22
18819;BME280;9537;45.594;9.294;2023-03-31T05:14:22;99501.94;;;12.92;71.55
18819;BME280;9537;45.594;9.294;2023-03-31T05:15:24;99495.81;;;12.91;71.28
18819;BME280;9537;45.594;9.294;2023-03-31T05:16:26;99491.50;;;12.90;71.35
18819;BME280;9537;45.594;9.294;2023-03-31T05:17:30;99484.19;;;12.92;71.17
18819;BME280;9537;45.594;9.294;2023-03-31T05:18:33;99493.78;;;12.93;70.86
18819;BME280;9537;45.594;9.294;2023-03-31T05:19:34;99484.00;;;12.94;70.86
18819;BME280;9537;45.594;9.294;2023-03-31T05:20:36;99479.94;;;12.98;71.15
18819;BME280;9537;45.594;9.294;2023-03-31T05:21:37;99490.81;;;13.03;71.12
18819;BME280;9537;45.594;9.294;2023-03-31T05:22:39;99487.75;;;13.06;71.19
18819;BME280;9537;45.594;9.294;2023-03-31T05:23:41;99494.69;;;13.07;71.07
18819;BME280;9537;45.594;9.294;2023-03-31T05:24:43;99492.44;;;13.04;71.68
18819;BME280;9537;45.594;9.294;2023-03-31T05:25:46;99487.47;;;12.94;72.38
18819;BME280;9537;45.594;9.294;2023-03-31T05:26:48;99485.22;;;12.91;72.64
18819;BME280;9537;45.594;9.294;2023-03-31T05:27:52;99480.09;;;12.90;73.16
18819;BME280;9537;45.594;9.294;2023-03-31T05:28:54;99489.50;;;12.92;72.70
18819;BME280;9537;45.594;9.294;2023-03-31T05:29:56;99491.50;;;12.90;72.66
18819;BME280;9537;45.594;9.294;2023-03-31T05:31:00;99490.91;;;12.88;72.67
18819;BME280;9537;45.594;9.294;2023-03-31T05:32:07;99493.94;;;12.85;72.66
18819;BME280;9537;45.594;9.294;2023-03-31T05:33:08;99487.19;;;12.82;72.90
18819;BME280;9537;45.594;9.294;2023-03-31T05:34:10;99479.03;;;12.84;72.57
18819;BME280;9537;45.594;9.294;2023-03-31T05:35:11;99481.25;;;12.80;73.61
18819;BME280;9537;45.594;9.294;2023-03-31T05:36:15;99471.84;;;12.78;74.21
18819;BME280;9537;45.594;9.294;2023-03-31T05:37:16;99472.03;;;12.76;74.32
18819;BME280;9537;45.594;9.294;2023-03-31T05:38:18;99465.09;;;12.75;74.17
18819;BME280;9537;45.594;9.294;2023-03-31T05:39:19;99470.38;;;12.75;74.35
18819;BME280;9537;45.594;9.294;2023-03-31T05:40:21;99469.56;;;12.75;73.90
18819;BME280;9537;45.594;9.294;2023-03-31T05:41:22;99467.94;;;12.74;73.67
18819;BME280;9537;45.594;9.294;2023-03-31T05:42:24;99466.94;;;12.75;73.85
18819;BME280;9537;45.594;9.294;2023-03-31T05:43:26;99473.84;;;12.76;73.94
18819;BME280;9537;45.594;9.294;2023-03-31T05:44:27;99466.75;;;12.76;73.57
18819;BME280;9537;45.594;9.294;2023-03-31T05:45:29;99473.03;;;12.75;72.84
18819;BME280;9537;45.594;9.294;2023-03-31T05:46:33;99470.22;;;12.77;72.92
18819;BME280;9537;45.594;9.294;2023-03-31T05:47:34;99469.56;;;12.75;72.45
18819;BME280;9537;45.594;9.294;2023-03-31T05:48:36;99471.19;;;12.76;72.41
18819;BME280;9537;45.594;9.294;2023-03-31T05:49:37;99474.50;;;12.78;73.50
18819;BME280;9537;45.594;9.294;2023-03-31T05:50:39;99480.59;;;12.78;72.83
18819;BME280;9537;45.594;9.294;2023-03-31T05:51:42;99480.44;;;12.80;72.68
18819;BME280;9537;45.594;9.294;2023-03-31T05:52:44;99473.94;;;12.82;72.22
18819;BME280;9537;45.594;9.294;2023-03-31T05:53:45;99482.06;;;12.81;72.08
18819;BME280;9537;45.594;9.294;2023-03-31T05:54:47;99473.47;;;12.79;72.26
18819;BME280;9537;45.594;9.294;2023-03-31T05:55:49;99485.09;;;12.78;72.32
18819;BME280;9537;45.594;9.294;2023-03-31T05:56:50;99469.00;;;12.79;72.60